createdAt,value
2022-10-23T00:01:45.735Z,9.53
2022-10-23T00:04:17.686Z,9.71
2022-10-23T00:06:48.480Z,9.75
2022-10-23T00:09:21.426Z,9.73
2022-10-23T00:11:51.312Z,9.76
2022-10-23T00:14:22.917Z,9.73
2022-10-23T00:16:51.644Z,9.75
2022-10-23T00:19:20.256Z,9.71
2022-10-23T00:21:51.632Z,9.62
2022-10-23T00:24:20.264Z,9.56
2022-10-23T00:26:51.545Z,9.48
2022-10-23T00:29:20.185Z,9.36
2022-10-23T00:31:48.809Z,9.25
2022-10-23T00:34:19.812Z,9.09
2022-10-23T00:36:49.533Z,9.00
2022-10-23T00:39:18.422Z,8.94
2022-10-23T00:41:47.173Z,9.02
2022-10-23T00:44:49.131Z,9.16
2022-10-23T00:47:18.543Z,9.08
2022-10-23T00:49:47.167Z,8.94
2022-10-23T00:52:16.986Z,8.91
2022-10-23T00:54:45.626Z,8.99
2022-10-23T00:57:16.556Z,9.00
2022-10-23T00:59:45.454Z,9.02
2022-10-23T01:02:14.263Z,8.99
2022-10-23T01:04:43.114Z,9.02
2022-10-23T01:07:19.939Z,9.04
2022-10-23T01:09:56.881Z,9.07
2022-10-23T01:12:39.699Z,9.13
2022-10-23T01:15:14.900Z,9.12
2022-10-23T01:17:47.443Z,9.09
2022-10-23T01:20:44.431Z,8.95
2022-10-23T01:23:43.462Z,8.89
2022-10-23T01:26:33.344Z,8.84
2022-10-23T01:29:08.175Z,8.67
2022-10-23T01:31:43.863Z,8.50
2022-10-23T01:34:18.940Z,8.38
2022-10-23T01:36:52.448Z,8.44
2022-10-23T01:39:27.453Z,8.41
2022-10-23T01:41:59.761Z,8.44
2022-10-23T01:44:39.528Z,8.41
2022-10-23T01:47:12.478Z,8.42
2022-10-23T01:49:59.057Z,8.44
2022-10-23T01:52:28.636Z,8.32
2022-10-23T01:55:01.640Z,8.26
2022-10-23T01:57:36.643Z,8.24
2022-10-23T02:00:12.514Z,8.15
2022-10-23T02:02:55.899Z,8.10
2022-10-23T02:05:32.541Z,8.18
2022-10-23T02:08:03.633Z,8.40
2022-10-23T02:10:41.166Z,8.51
2022-10-23T02:13:18.030Z,8.68
2022-10-23T02:15:58.060Z,8.73
2022-10-23T02:18:38.995Z,8.80
2022-10-23T02:21:11.364Z,8.83
2022-10-23T02:23:50.377Z,8.80
2022-10-23T02:26:26.442Z,8.80
2022-10-23T02:29:06.817Z,8.84
2022-10-23T02:31:37.243Z,8.80
2022-10-23T02:34:05.956Z,8.78
2022-10-23T02:36:34.640Z,8.86
2022-10-23T02:39:04.475Z,8.84
2022-10-23T02:41:44.394Z,8.88
2022-10-23T02:44:40.782Z,8.89
2022-10-23T02:47:22.653Z,8.84
2022-10-23T02:50:04.523Z,8.75
2022-10-23T02:52:44.043Z,8.70
2022-10-23T02:55:23.121Z,8.64
2022-10-23T02:57:58.880Z,8.58
2022-10-23T03:00:32.819Z,8.56
2022-10-23T03:03:12.460Z,8.51
2022-10-23T03:05:44.901Z,8.42
2022-10-23T03:08:16.288Z,8.42
2022-10-23T03:10:45.077Z,8.40
2022-10-23T03:13:13.904Z,8.42
2022-10-23T03:15:44.651Z,8.42
2022-10-23T03:18:16.915Z,8.37
2022-10-23T03:20:51.805Z,8.25
2022-10-23T03:23:23.915Z,8.12
2022-10-23T03:25:53.353Z,8.07
2022-10-23T03:28:42.679Z,8.04
2022-10-23T03:31:11.183Z,8.03
2022-10-23T03:33:42.701Z,8.03
2022-10-23T03:36:13.640Z,7.93
2022-10-23T03:38:42.345Z,7.81
2022-10-23T03:41:12.450Z,7.87
2022-10-23T03:43:41.050Z,7.77
2022-10-23T03:46:12.709Z,7.78
2022-10-23T03:48:42.439Z,7.72
2022-10-23T03:51:11.482Z,7.67
2022-10-23T03:53:42.555Z,7.64
2022-10-23T03:56:11.276Z,7.57
2022-10-23T03:58:42.010Z,7.44
2022-10-23T04:01:10.972Z,7.40
2022-10-23T04:03:41.126Z,7.43
2022-10-23T04:06:10.121Z,7.37
2022-10-23T04:08:39.767Z,7.37
2022-10-23T04:11:15.767Z,7.46
2022-10-23T04:13:47.514Z,7.49
2022-10-23T04:16:16.287Z,7.43
2022-10-23T04:18:47.578Z,7.49
2022-10-23T04:21:16.221Z,7.51
2022-10-23T04:23:45.255Z,7.53
2022-10-23T04:26:16.172Z,7.46
2022-10-23T04:28:44.870Z,7.47
2022-10-23T04:31:13.883Z,7.44
2022-10-23T04:33:43.957Z,7.40
2022-10-23T04:36:24.868Z,7.27
2022-10-23T04:38:53.724Z,7.18
2022-10-23T04:41:22.620Z,7.17
2022-10-23T04:43:51.310Z,7.38
2022-10-23T04:46:20.096Z,7.50
2022-10-23T04:48:50.303Z,7.70
2022-10-23T04:51:39.241Z,7.81
2022-10-23T04:54:15.159Z,7.86
2022-10-23T04:56:59.558Z,7.79
2022-10-23T04:59:34.892Z,7.78
2022-10-23T05:02:03.653Z,7.74
2022-10-23T05:04:32.488Z,7.63
2022-10-23T05:07:41.225Z,7.61
2022-10-23T05:10:30.454Z,7.58
2022-10-23T05:13:19.738Z,7.49
2022-10-23T05:15:49.015Z,7.45
2022-10-23T05:18:24.105Z,7.40
2022-10-23T05:20:58.486Z,7.40
2022-10-23T05:23:29.275Z,7.34
2022-10-23T05:26:03.246Z,7.31
2022-10-23T05:28:33.297Z,7.29
2022-10-23T05:31:06.019Z,7.27
2022-10-23T05:33:38.295Z,7.27
2022-10-23T05:36:08.352Z,7.26
2022-10-23T05:38:38.510Z,7.24
2022-10-23T05:41:14.572Z,7.22
2022-10-23T05:43:43.430Z,7.32
2022-10-23T05:46:32.117Z,7.40
2022-10-23T05:49:19.453Z,7.34
2022-10-23T05:52:06.813Z,7.31
2022-10-23T05:54:48.972Z,7.30
2022-10-23T05:57:38.049Z,7.29
2022-10-23T06:00:12.049Z,7.29
2022-10-23T06:02:43.255Z,7.37
2022-10-23T06:08:32.066Z,7.56
2022-10-23T06:11:07.694Z,7.61
2022-10-23T06:13:37.739Z,7.71
2022-10-23T06:16:10.921Z,7.82
2022-10-23T06:18:40.604Z,7.85
2022-10-23T06:21:15.069Z,7.87
2022-10-23T06:23:46.302Z,7.87
2022-10-23T06:26:35.008Z,7.88
2022-10-23T06:29:10.133Z,7.88
2022-10-23T06:31:39.974Z,7.94
2022-10-23T06:34:11.662Z,7.99
2022-10-23T06:36:40.583Z,8.15
2022-10-23T06:39:29.911Z,8.24
2022-10-23T06:42:12.087Z,8.47
2022-10-23T06:44:55.404Z,8.64
2022-10-23T06:47:42.850Z,8.75
2022-10-23T06:50:38.698Z,8.95
2022-10-23T06:53:13.137Z,9.11
2022-10-23T06:55:50.226Z,9.21
2022-10-23T06:58:23.320Z,9.36
2022-10-23T07:01:02.819Z,9.52
2022-10-23T07:03:31.877Z,9.70
2022-10-23T07:06:02.693Z,9.77
2022-10-23T07:08:31.521Z,9.76
2022-10-23T07:11:03.834Z,9.85
2022-10-23T07:13:36.332Z,10.02
2022-10-23T07:16:18.701Z,9.97
2022-10-23T07:18:48.741Z,10.17
2022-10-23T07:21:37.929Z,10.05
2022-10-23T07:24:25.059Z,10.09
2022-10-23T07:26:55.865Z,10.23
2022-10-23T07:29:27.157Z,10.63
2022-10-23T07:31:55.876Z,10.82
2022-10-23T07:34:44.767Z,11.54
2022-10-23T07:37:27.358Z,12.17
2022-10-23T07:39:56.011Z,12.49
2022-10-23T07:42:25.740Z,12.45
2022-10-23T07:44:55.612Z,12.34
2022-10-23T07:47:25.477Z,12.39
2022-10-23T07:49:55.928Z,12.86
2022-10-23T07:52:24.643Z,13.33
2022-10-23T07:55:28.154Z,14.22
2022-10-23T07:58:07.547Z,15.13
2022-10-23T08:00:45.341Z,15.33
2022-10-23T08:03:25.334Z,15.76
2022-10-23T08:05:55.173Z,16.30
2022-10-23T08:08:25.627Z,16.40
2022-10-23T08:10:57.993Z,16.28
2022-10-23T08:13:31.608Z,16.85
2022-10-23T08:16:06.842Z,16.69
2022-10-23T08:18:53.844Z,16.09
2022-10-23T08:21:23.420Z,15.75
2022-10-23T08:23:55.810Z,15.07
2022-10-23T08:26:25.858Z,14.37
2022-10-23T08:28:55.032Z,13.87
2022-10-23T08:31:26.342Z,13.65
2022-10-23T08:34:15.343Z,13.68
2022-10-23T08:36:46.225Z,13.82
2022-10-23T08:39:15.743Z,13.97
2022-10-23T08:41:58.964Z,13.99
2022-10-23T08:44:36.455Z,13.88
2022-10-23T08:47:13.112Z,13.85
2022-10-23T08:50:07.953Z,14.21
2022-10-23T08:52:42.697Z,14.79
2022-10-23T08:55:22.146Z,15.33
2022-10-23T08:57:59.740Z,15.54
2022-10-23T09:00:30.074Z,15.44
2022-10-23T09:03:06.151Z,15.01
2022-10-23T09:05:50.643Z,14.94
2022-10-23T09:08:42.674Z,15.10
2022-10-23T09:11:25.480Z,15.01
2022-10-23T09:14:50.001Z,14.93
2022-10-23T09:17:25.682Z,15.08
2022-10-23T09:20:08.647Z,15.24
2022-10-23T09:22:37.345Z,15.38
2022-10-23T09:25:11.943Z,15.92
2022-10-23T09:27:45.968Z,16.00
2022-10-23T09:30:25.804Z,15.89
2022-10-23T09:32:54.227Z,15.89
2022-10-23T09:35:26.971Z,15.76
2022-10-23T09:37:56.338Z,15.70
2022-10-23T09:40:33.353Z,16.08
2022-10-23T09:43:04.998Z,16.68
2022-10-23T09:45:36.116Z,16.78
2022-10-23T09:48:14.702Z,17.59
2022-10-23T09:50:54.719Z,18.15
2022-10-23T09:53:39.378Z,17.69
2022-10-23T09:56:25.634Z,18.10
2022-10-23T09:58:58.651Z,17.93
2022-10-23T10:01:30.769Z,17.61
2022-10-23T10:04:16.722Z,17.02
2022-10-23T10:06:46.954Z,15.80
2022-10-23T10:09:17.997Z,15.47
2022-10-23T10:11:55.297Z,16.48
2022-10-23T10:14:49.581Z,16.44
2022-10-23T10:17:31.218Z,17.41
2022-10-23T10:20:36.345Z,18.41
2022-10-23T10:23:14.081Z,17.97
2022-10-23T10:25:55.297Z,17.17
2022-10-23T10:28:54.913Z,16.30
2022-10-23T10:31:41.409Z,16.05
2022-10-23T10:34:22.728Z,16.35
2022-10-23T10:36:55.860Z,16.74
2022-10-23T10:39:45.315Z,18.20
2022-10-23T10:42:41.511Z,18.32
2022-10-23T10:45:24.333Z,18.26
2022-10-23T10:48:17.949Z,18.60
2022-10-23T10:51:08.842Z,19.43
2022-10-23T10:54:10.809Z,19.76
2022-10-23T10:56:44.929Z,19.88
2022-10-23T10:59:24.581Z,18.91
2022-10-23T11:02:01.199Z,19.05
2022-10-23T11:04:37.648Z,20.42
2022-10-23T11:07:12.029Z,20.85
2022-10-23T11:09:43.078Z,21.40
2022-10-23T11:12:23.775Z,20.69
2022-10-23T11:14:52.938Z,19.73
2022-10-23T11:17:28.921Z,19.40
2022-10-23T11:20:06.895Z,19.79
2022-10-23T11:22:43.903Z,20.43
2022-10-23T11:25:41.860Z,20.74
2022-10-23T11:28:26.488Z,19.95
2022-10-23T11:31:11.872Z,20.11
2022-10-23T11:34:09.604Z,19.60
2022-10-23T11:36:55.300Z,18.83
2022-10-23T11:39:26.975Z,18.39
2022-10-23T11:42:00.713Z,18.56
2022-10-23T11:44:44.572Z,18.49
2022-10-23T11:47:33.926Z,18.93
2022-10-23T11:50:27.441Z,18.66
2022-10-23T11:53:14.593Z,19.17
2022-10-23T11:56:06.747Z,18.98
2022-10-23T11:58:49.013Z,18.46
2022-10-23T12:01:29.358Z,18.55
2022-10-23T12:04:01.695Z,18.83
2022-10-23T12:06:34.067Z,17.97
2022-10-23T12:09:28.223Z,17.52
2022-10-23T12:12:16.521Z,16.91
2022-10-23T12:14:48.305Z,16.89
2022-10-23T12:17:37.741Z,17.17
2022-10-23T12:20:30.491Z,17.48
2022-10-23T12:23:13.878Z,17.71
2022-10-23T12:25:52.214Z,17.76
2022-10-23T12:28:33.527Z,17.58
2022-10-23T12:31:18.797Z,17.33
2022-10-23T12:34:05.185Z,17.15
2022-10-23T12:36:58.135Z,16.85
2022-10-23T12:39:31.183Z,16.82
2022-10-23T12:42:01.479Z,16.92
2022-10-23T12:44:30.473Z,16.82
2022-10-23T12:47:03.254Z,16.58
2022-10-23T12:49:35.478Z,16.58
2022-10-23T12:52:06.931Z,16.39
2022-10-23T12:54:40.714Z,16.29
2022-10-23T12:57:23.512Z,16.26
2022-10-23T12:59:56.371Z,16.25
2022-10-23T13:02:28.340Z,16.30
2022-10-23T13:05:03.825Z,16.17
2022-10-23T13:07:38.449Z,16.00
2022-10-23T13:10:12.569Z,15.89
2022-10-23T13:12:56.956Z,16.05
2022-10-23T13:15:26.877Z,16.13
2022-10-23T13:18:07.018Z,16.46
2022-10-23T13:20:39.778Z,16.36
2022-10-23T13:23:19.445Z,16.44
2022-10-23T13:25:55.954Z,16.44
2022-10-23T13:28:27.201Z,16.14
2022-10-23T13:31:21.394Z,16.06
2022-10-23T13:33:52.624Z,15.97
2022-10-23T13:36:27.454Z,15.99
2022-10-23T13:39:13.550Z,16.06
2022-10-23T13:41:45.248Z,15.82
2022-10-23T13:44:17.090Z,15.76
2022-10-23T13:46:46.038Z,15.75
2022-10-23T13:49:14.927Z,15.63
2022-10-23T13:51:50.103Z,15.64
2022-10-23T13:54:21.686Z,15.56
2022-10-23T13:56:50.435Z,15.49
2022-10-23T13:59:19.689Z,15.48
2022-10-23T14:01:50.498Z,15.47
2022-10-23T14:04:20.485Z,15.76
2022-10-23T14:06:50.273Z,16.79
2022-10-23T14:09:19.668Z,16.92
2022-10-23T14:11:48.303Z,16.76
2022-10-23T14:14:16.983Z,16.61
2022-10-23T14:16:45.649Z,16.41
2022-10-23T14:19:14.538Z,16.55
2022-10-23T14:21:43.215Z,16.92
2022-10-23T14:24:13.000Z,17.93
2022-10-23T14:26:43.205Z,18.39
2022-10-23T14:29:19.747Z,18.75
2022-10-23T14:31:51.584Z,18.89
2022-10-23T14:34:20.101Z,18.76
2022-10-23T14:36:56.714Z,18.47
2022-10-23T14:39:34.053Z,17.75
2022-10-23T14:42:02.506Z,17.27
2022-10-23T14:44:31.135Z,16.72
2022-10-23T14:46:59.860Z,16.73
2022-10-23T14:49:28.183Z,16.50
2022-10-23T14:51:56.493Z,16.38
2022-10-23T14:54:25.447Z,15.99
2022-10-23T14:56:55.438Z,15.76
2022-10-23T14:59:24.059Z,15.65
2022-10-23T15:04:26.375Z,15.31
2022-10-23T15:06:55.105Z,15.17
2022-10-23T15:09:23.480Z,15.07
2022-10-23T15:11:52.155Z,14.93
2022-10-23T15:14:22.113Z,14.75
2022-10-23T15:16:50.824Z,14.60
2022-10-23T15:19:19.447Z,14.52
2022-10-23T15:21:48.863Z,14.34
2022-10-23T15:24:18.052Z,14.15
2022-10-23T15:26:47.005Z,14.10
2022-10-23T15:29:16.667Z,13.93
2022-10-23T15:31:50.459Z,13.78
2022-10-23T15:34:21.222Z,13.57
2022-10-23T15:36:50.646Z,13.42
2022-10-23T15:39:22.317Z,13.29
2022-10-23T15:41:54.142Z,13.18
2022-10-23T15:44:26.028Z,13.13
2022-10-23T15:46:57.367Z,13.09
2022-10-23T15:49:26.552Z,12.99
2022-10-23T15:51:55.358Z,12.98
2022-10-23T15:54:26.048Z,12.91
2022-10-23T15:56:56.914Z,12.86
2022-10-23T15:59:26.876Z,12.81
2022-10-23T16:01:57.564Z,12.75
2022-10-23T16:04:26.156Z,12.74
2022-10-23T16:06:54.812Z,12.81
2022-10-23T16:09:23.191Z,12.84
2022-10-23T16:11:51.896Z,12.83
2022-10-23T16:14:20.531Z,12.87
2022-10-23T16:16:48.944Z,12.91
2022-10-23T16:19:18.829Z,12.89
2022-10-23T16:21:47.725Z,12.90
2022-10-23T16:24:16.168Z,12.92
2022-10-23T16:26:50.326Z,13.00
2022-10-23T16:29:19.049Z,13.07
2022-10-23T16:31:47.739Z,13.08
2022-10-23T16:34:16.332Z,13.08
2022-10-23T16:36:46.627Z,13.06
2022-10-23T16:39:22.717Z,12.99
2022-10-23T16:42:13.563Z,12.83
2022-10-23T16:44:57.821Z,12.77
2022-10-23T16:47:26.544Z,12.74
2022-10-23T16:49:54.843Z,12.68
2022-10-23T16:52:24.735Z,12.65
2022-10-23T16:54:53.262Z,12.60
2022-10-23T16:57:21.757Z,12.56
2022-10-23T16:59:50.357Z,12.54
2022-10-23T17:02:19.140Z,12.51
2022-10-23T17:04:47.606Z,12.62
2022-10-23T17:07:16.028Z,12.70
2022-10-23T17:09:47.692Z,12.66
2022-10-23T17:12:16.992Z,12.67
2022-10-23T17:14:45.697Z,12.60
2022-10-23T17:17:14.385Z,12.58
2022-10-23T17:19:45.477Z,12.53
2022-10-23T17:22:14.897Z,12.49
2022-10-23T17:24:46.443Z,12.45
2022-10-23T17:27:19.155Z,12.39
2022-10-23T17:29:47.932Z,12.55
2022-10-23T17:32:16.342Z,12.62
2022-10-23T17:34:46.518Z,12.68
2022-10-23T17:37:15.247Z,12.83
2022-10-23T17:39:44.325Z,12.91
2022-10-23T17:42:12.840Z,13.02
2022-10-23T17:44:42.563Z,13.07
2022-10-23T17:47:11.198Z,13.06
2022-10-23T17:49:42.803Z,13.11
2022-10-23T17:52:14.997Z,13.12
2022-10-23T17:54:43.748Z,13.23
2022-10-23T17:57:12.844Z,13.29
2022-10-23T17:59:43.294Z,13.32
2022-10-23T18:02:14.152Z,13.32
2022-10-23T18:04:43.218Z,13.32
2022-10-23T18:07:13.176Z,13.24
2022-10-23T18:09:42.095Z,13.25
2022-10-23T18:12:11.063Z,13.27
2022-10-23T18:14:40.248Z,13.23
2022-10-23T18:17:10.463Z,13.13
2022-10-23T18:19:39.054Z,13.07
2022-10-23T18:22:07.880Z,13.11
2022-10-23T18:24:38.092Z,13.03
2022-10-23T18:27:07.417Z,12.93
2022-10-23T18:29:38.261Z,12.88
2022-10-23T18:32:07.513Z,12.89
2022-10-23T18:34:37.963Z,13.03
2022-10-23T18:37:06.938Z,13.04
2022-10-23T18:39:35.689Z,12.99
2022-10-23T18:42:04.464Z,12.93
2022-10-23T18:44:33.244Z,12.89
2022-10-23T18:47:02.273Z,12.91
2022-10-23T18:49:34.430Z,12.91
2022-10-23T18:52:04.965Z,12.89
2022-10-23T18:54:34.096Z,12.93
2022-10-23T18:57:06.217Z,12.99
2022-10-23T18:59:35.327Z,12.96
2022-10-23T19:02:04.268Z,12.97
2022-10-23T19:04:35.586Z,12.93
2022-10-23T19:07:07.058Z,12.96
2022-10-23T19:09:36.353Z,12.93
2022-10-23T19:12:05.929Z,12.84
2022-10-23T19:14:34.668Z,12.87
2022-10-23T19:17:09.138Z,12.77
2022-10-23T19:19:44.910Z,12.73
2022-10-23T19:22:20.229Z,12.63
2022-10-23T19:24:55.227Z,12.55
2022-10-23T19:27:24.608Z,12.53
2022-10-23T19:29:55.568Z,12.54
2022-10-23T19:32:24.471Z,12.56
2022-10-23T19:34:53.238Z,12.56
2022-10-23T19:37:23.648Z,12.55
2022-10-23T19:39:52.505Z,12.60
2022-10-23T19:42:21.330Z,12.64
2022-10-23T19:44:50.190Z,12.61
2022-10-23T19:47:19.096Z,12.64
2022-10-23T19:49:50.783Z,12.68
2022-10-23T19:52:22.273Z,12.69
2022-10-23T19:54:52.890Z,12.72
2022-10-23T19:57:22.639Z,12.71
2022-10-23T19:59:52.770Z,12.73
2022-10-23T20:02:22.511Z,12.75
2022-10-23T20:04:51.383Z,12.76
2022-10-23T20:07:20.280Z,12.77
2022-10-23T20:09:49.057Z,12.78
2022-10-23T20:12:19.376Z,12.75
2022-10-23T20:14:48.359Z,12.77
2022-10-23T20:17:16.843Z,12.75
2022-10-23T20:19:45.615Z,12.77
2022-10-23T20:22:14.487Z,12.73
2022-10-23T20:24:43.663Z,12.73
2022-10-23T20:27:13.851Z,12.73
2022-10-23T20:29:44.409Z,12.72
2022-10-23T20:32:14.787Z,12.70
2022-10-23T20:34:44.280Z,12.69
2022-10-23T20:37:12.951Z,12.65
2022-10-23T20:39:41.767Z,12.75
2022-10-23T20:42:10.481Z,12.75
2022-10-23T20:44:39.265Z,12.76
2022-10-23T20:47:09.432Z,12.71
2022-10-23T20:49:38.298Z,12.69
2022-10-23T20:52:06.724Z,12.68
2022-10-23T20:54:36.450Z,12.68
2022-10-23T20:57:05.493Z,12.63
2022-10-23T20:59:35.344Z,12.61
2022-10-23T21:02:03.961Z,12.60
2022-10-23T21:04:35.315Z,12.61
2022-10-23T21:07:10.047Z,12.62
2022-10-23T21:09:40.418Z,12.60
2022-10-23T21:12:10.027Z,12.57
2022-10-23T21:14:39.083Z,12.54
2022-10-23T21:17:08.567Z,12.56
2022-10-23T21:19:39.629Z,12.56
2022-10-23T21:22:08.259Z,12.55
2022-10-23T21:24:36.925Z,12.56
2022-10-23T21:27:05.439Z,12.53
2022-10-23T21:29:34.239Z,12.53
2022-10-23T21:32:02.648Z,12.54
2022-10-23T21:34:31.861Z,12.55
2022-10-23T21:37:17.638Z,12.51
2022-10-23T21:39:47.166Z,12.46
2022-10-23T21:42:16.435Z,12.45
2022-10-23T21:44:45.063Z,12.43
2022-10-23T21:47:13.433Z,12.43
2022-10-23T21:49:42.044Z,12.44
2022-10-23T21:52:13.985Z,12.52
2022-10-23T21:54:44.826Z,12.56
2022-10-23T21:57:15.639Z,12.62
2022-10-23T21:59:44.205Z,12.68
2022-10-23T22:02:12.734Z,12.69
2022-10-23T22:04:43.595Z,12.68
2022-10-23T22:07:14.985Z,12.65
2022-10-23T22:09:44.188Z,12.66
2022-10-23T22:12:13.644Z,12.67
2022-10-23T22:14:42.531Z,12.69
2022-10-23T22:17:10.916Z,12.68
2022-10-23T22:19:39.554Z,12.65
2022-10-23T22:22:08.212Z,12.61
2022-10-23T22:24:38.650Z,12.59
2022-10-23T22:27:07.095Z,12.61
2022-10-23T22:29:35.902Z,12.61
2022-10-23T22:32:04.590Z,12.55
2022-10-23T22:34:51.707Z,12.51
2022-10-23T22:37:20.906Z,12.46
2022-10-23T22:39:53.681Z,12.40
2022-10-23T22:42:22.368Z,12.34
2022-10-23T22:44:50.636Z,12.30
2022-10-23T22:47:19.368Z,12.31
2022-10-23T22:49:47.639Z,12.34
2022-10-23T22:52:15.925Z,12.31
2022-10-23T22:54:44.519Z,12.34
2022-10-23T22:57:14.240Z,12.31
2022-10-23T22:59:42.928Z,12.29
2022-10-23T23:02:11.564Z,12.27
2022-10-23T23:04:39.974Z,12.40
2022-10-23T23:07:09.453Z,12.53
2022-10-23T23:09:40.140Z,12.49
2022-10-23T23:12:10.545Z,12.47
2022-10-23T23:14:41.076Z,12.53
2022-10-23T23:17:10.620Z,12.61
2022-10-23T23:19:39.737Z,12.70
2022-10-23T23:22:08.391Z,12.71
2022-10-23T23:24:37.171Z,12.72
2022-10-23T23:27:05.986Z,12.87
2022-10-23T23:29:35.077Z,13.12
2022-10-23T23:32:06.194Z,13.15
2022-10-23T23:34:35.329Z,13.08
2022-10-23T23:37:03.981Z,13.11
2022-10-23T23:39:32.333Z,13.15
2022-10-23T23:42:01.000Z,13.07
2022-10-23T23:44:29.629Z,13.05
2022-10-23T23:46:58.195Z,13.11
2022-10-23T23:49:27.924Z,13.26
2022-10-23T23:51:56.530Z,13.19
2022-10-23T23:54:24.849Z,13.19
2022-10-23T23:56:56.712Z,13.16
2022-10-23T23:59:25.092Z,13.14
